sensor_id;sensor_type;location;lat;lon;timestamp;P1;durP1;ratioP1;P2;durP2;ratioP2
21697;SDS011;11010;49.548;11.926;2023-05-07T00:00:02;7.18;;;2.58;;
21697;SDS011;11010;49.548;11.926;2023-05-07T00:02:35;6.80;;;2.45;;
21697;SDS011;11010;49.548;11.926;2023-05-07T00:05:03;7.75;;;2.83;;
21697;SDS011;11010;49.548;11.926;2023-05-07T00:07:30;8.00;;;2.95;;
21697;SDS011;11010;49.548;11.926;2023-05-07T00:09:57;8.88;;;3.10;;
21697;SDS011;11010;49.548;11.926;2023-05-07T00:12:25;8.25;;;2.90;;
21697;SDS011;11010;49.548;11.926;2023-05-07T00:14:52;7.05;;;2.35;;
21697;SDS011;11010;49.548;11.926;2023-05-07T00:17:19;7.95;;;2.80;;
21697;SDS011;11010;49.548;11.926;2023-05-07T00:19:46;7.40;;;2.80;;
21697;SDS011;11010;49.548;11.926;2023-05-07T00:22:14;8.18;;;2.80;;
21697;SDS011;11010;49.548;11.926;2023-05-07T00:24:41;8.52;;;3.40;;
21697;SDS011;11010;49.548;11.926;2023-05-07T00:27:08;7.35;;;3.00;;
21697;SDS011;11010;49.548;11.926;2023-05-07T00:29:35;7.90;;;2.80;;
21697;SDS011;11010;49.548;11.926;2023-05-07T00:32:03;7.15;;;2.60;;
21697;SDS011;11010;49.548;11.926;2023-05-07T00:34:30;7.50;;;2.63;;
21697;SDS011;11010;49.548;11.926;2023-05-07T00:36:57;8.13;;;3.13;;
21697;SDS011;11010;49.548;11.926;2023-05-07T00:39:24;8.60;;;3.13;;
21697;SDS011;11010;49.548;11.926;2023-05-07T00:41:51;8.63;;;3.33;;
21697;SDS011;11010;49.548;11.926;2023-05-07T00:44:18;8.73;;;3.55;;
21697;SDS011;11010;49.548;11.926;2023-05-07T00:46:46;9.35;;;3.35;;
21697;SDS011;11010;49.548;11.926;2023-05-07T00:49:16;9.77;;;3.30;;
21697;SDS011;11010;49.548;11.926;2023-05-07T00:51:44;8.90;;;3.25;;
21697;SDS011;11010;49.548;11.926;2023-05-07T00:54:12;9.57;;;3.80;;
21697;SDS011;11010;49.548;11.926;2023-05-07T00:56:40;10.27;;;4.03;;
21697;SDS011;11010;49.548;11.926;2023-05-07T00:59:07;8.95;;;3.28;;
21697;SDS011;11010;49.548;11.926;2023-05-07T01:01:35;8.52;;;3.50;;
21697;SDS011;11010;49.548;11.926;2023-05-07T01:04:03;8.10;;;3.35;;
21697;SDS011;11010;49.548;11.926;2023-05-07T01:06:30;8.88;;;3.80;;
21697;SDS011;11010;49.548;11.926;2023-05-07T01:08:59;8.95;;;3.67;;
21697;SDS011;11010;49.548;11.926;2023-05-07T01:11:28;9.77;;;4.13;;
21697;SDS011;11010;49.548;11.926;2023-05-07T01:13:55;9.55;;;4.03;;
21697;SDS011;11010;49.548;11.926;2023-05-07T01:16:23;10.43;;;3.97;;
21697;SDS011;11010;49.548;11.926;2023-05-07T01:18:50;9.18;;;4.00;;
21697;SDS011;11010;49.548;11.926;2023-05-07T01:21:18;10.88;;;4.63;;
21697;SDS011;11010;49.548;11.926;2023-05-07T01:23:49;9.35;;;4.45;;
21697;SDS011;11010;49.548;11.926;2023-05-07T01:26:16;9.93;;;4.30;;
21697;SDS011;11010;49.548;11.926;2023-05-07T01:28:46;9.45;;;4.05;;
21697;SDS011;11010;49.548;11.926;2023-05-07T01:31:13;9.20;;;4.20;;
21697;SDS011;11010;49.548;11.926;2023-05-07T01:33:43;9.55;;;3.97;;
21697;SDS011;11010;49.548;11.926;2023-05-07T01:36:12;10.68;;;4.40;;
21697;SDS011;11010;49.548;11.926;2023-05-07T01:38:41;9.13;;;4.18;;
21697;SDS011;11010;49.548;11.926;2023-05-07T01:41:08;11.80;;;4.00;;
21697;SDS011;11010;49.548;11.926;2023-05-07T01:43:36;9.35;;;4.13;;
21697;SDS011;11010;49.548;11.926;2023-05-07T01:46:03;9.20;;;4.20;;
21697;SDS011;11010;49.548;11.926;2023-05-07T01:48:31;11.50;;;3.90;;
21697;SDS011;11010;49.548;11.926;2023-05-07T01:50:59;9.60;;;3.67;;
21697;SDS011;11010;49.548;11.926;2023-05-07T01:53:27;9.00;;;3.80;;
21697;SDS011;11010;49.548;11.926;2023-05-07T01:55:54;9.02;;;3.88;;
21697;SDS011;11010;49.548;11.926;2023-05-07T01:58:23;9.67;;;3.67;;
21697;SDS011;11010;49.548;11.926;2023-05-07T02:00:50;12.50;;;4.45;;
21697;SDS011;11010;49.548;11.926;2023-05-07T02:03:17;9.73;;;4.47;;
21697;SDS011;11010;49.548;11.926;2023-05-07T02:05:54;8.82;;;3.72;;
21697;SDS011;11010;49.548;11.926;2023-05-07T02:08:34;9.80;;;4.40;;
21697;SDS011;11010;49.548;11.926;2023-05-07T02:11:01;9.07;;;3.92;;
21697;SDS011;11010;49.548;11.926;2023-05-07T02:13:29;9.60;;;3.90;;
21697;SDS011;11010;49.548;11.926;2023-05-07T02:15:59;8.90;;;3.78;;
21697;SDS011;11010;49.548;11.926;2023-05-07T02:18:27;9.68;;;4.10;;
21697;SDS011;11010;49.548;11.926;2023-05-07T02:20:54;9.95;;;4.10;;
21697;SDS011;11010;49.548;11.926;2023-05-07T02:23:21;10.27;;;4.10;;
21697;SDS011;11010;49.548;11.926;2023-05-07T02:25:49;10.53;;;4.47;;
21697;SDS011;11010;49.548;11.926;2023-05-07T02:28:16;11.80;;;4.53;;
21697;SDS011;11010;49.548;11.926;2023-05-07T02:31:09;10.05;;;4.22;;
21697;SDS011;11010;49.548;11.926;2023-05-07T02:33:37;9.50;;;4.43;;
21697;SDS011;11010;49.548;11.926;2023-05-07T02:36:07;9.65;;;4.30;;
21697;SDS011;11010;49.548;11.926;2023-05-07T02:38:45;11.05;;;4.70;;
21697;SDS011;11010;49.548;11.926;2023-05-07T02:41:12;11.40;;;5.22;;
21697;SDS011;11010;49.548;11.926;2023-05-07T02:43:39;9.90;;;4.57;;
21697;SDS011;11010;49.548;11.926;2023-05-07T02:46:07;9.60;;;4.40;;
21697;SDS011;11010;49.548;11.926;2023-05-07T02:48:39;11.15;;;4.90;;
21697;SDS011;11010;49.548;11.926;2023-05-07T02:51:06;10.57;;;4.60;;
21697;SDS011;11010;49.548;11.926;2023-05-07T02:53:35;11.37;;;4.83;;
21697;SDS011;11010;49.548;11.926;2023-05-07T02:56:02;11.83;;;4.50;;
21697;SDS011;11010;49.548;11.926;2023-05-07T02:58:29;11.47;;;4.60;;
21697;SDS011;11010;49.548;11.926;2023-05-07T03:00:58;10.00;;;4.50;;
21697;SDS011;11010;49.548;11.926;2023-05-07T03:03:37;11.70;;;4.60;;
21697;SDS011;11010;49.548;11.926;2023-05-07T03:06:06;11.27;;;4.67;;
21697;SDS011;11010;49.548;11.926;2023-05-07T03:08:33;10.00;;;4.30;;
21697;SDS011;11010;49.548;11.926;2023-05-07T03:11:00;10.87;;;4.20;;
21697;SDS011;11010;49.548;11.926;2023-05-07T03:13:27;11.57;;;4.80;;
21697;SDS011;11010;49.548;11.926;2023-05-07T03:15:55;10.30;;;4.50;;
21697;SDS011;11010;49.548;11.926;2023-05-07T03:18:22;10.07;;;4.23;;
21697;SDS011;11010;49.548;11.926;2023-05-07T03:20:49;10.27;;;4.70;;
21697;SDS011;11010;49.548;11.926;2023-05-07T03:23:17;9.90;;;4.53;;
21697;SDS011;11010;49.548;11.926;2023-05-07T03:25:44;10.90;;;4.50;;
21697;SDS011;11010;49.548;11.926;2023-05-07T03:28:11;10.18;;;4.47;;
21697;SDS011;11010;49.548;11.926;2023-05-07T03:30:45;49.53;;;25.57;;
21697;SDS011;11010;49.548;11.926;2023-05-07T03:33:12;18.80;;;9.43;;
21697;SDS011;11010;49.548;11.926;2023-05-07T03:35:39;18.07;;;7.97;;
21697;SDS011;11010;49.548;11.926;2023-05-07T03:38:07;14.15;;;5.97;;
21697;SDS011;11010;49.548;11.926;2023-05-07T03:40:35;12.03;;;5.63;;
21697;SDS011;11010;49.548;11.926;2023-05-07T03:43:04;11.73;;;5.70;;
21697;SDS011;11010;49.548;11.926;2023-05-07T03:45:34;11.95;;;5.63;;
21697;SDS011;11010;49.548;11.926;2023-05-07T03:48:15;12.20;;;5.68;;
21697;SDS011;11010;49.548;11.926;2023-05-07T03:50:42;10.90;;;5.20;;
21697;SDS011;11010;49.548;11.926;2023-05-07T03:53:09;11.43;;;5.27;;
21697;SDS011;11010;49.548;11.926;2023-05-07T03:55:38;11.53;;;5.73;;
21697;SDS011;11010;49.548;11.926;2023-05-07T03:58:05;12.10;;;5.57;;
21697;SDS011;11010;49.548;11.926;2023-05-07T04:00:33;11.43;;;5.67;;
21697;SDS011;11010;49.548;11.926;2023-05-07T04:03:13;12.37;;;5.40;;
21697;SDS011;11010;49.548;11.926;2023-05-07T04:05:41;10.87;;;5.40;;
21697;SDS011;11010;49.548;11.926;2023-05-07T04:08:08;11.47;;;5.47;;
21697;SDS011;11010;49.548;11.926;2023-05-07T04:10:39;11.97;;;5.30;;
21697;SDS011;11010;49.548;11.926;2023-05-07T04:13:09;12.10;;;5.40;;
21697;SDS011;11010;49.548;11.926;2023-05-07T04:15:37;11.20;;;4.87;;
21697;SDS011;11010;49.548;11.926;2023-05-07T04:18:08;11.70;;;5.20;;
21697;SDS011;11010;49.548;11.926;2023-05-07T04:20:36;12.07;;;5.90;;
21697;SDS011;11010;49.548;11.926;2023-05-07T04:23:07;13.43;;;6.37;;
21697;SDS011;11010;49.548;11.926;2023-05-07T04:25:35;10.93;;;5.23;;
21697;SDS011;11010;49.548;11.926;2023-05-07T04:28:11;12.17;;;5.47;;
21697;SDS011;11010;49.548;11.926;2023-05-07T04:30:39;11.63;;;5.40;;
21697;SDS011;11010;49.548;11.926;2023-05-07T04:33:08;10.40;;;5.23;;
21697;SDS011;11010;49.548;11.926;2023-05-07T04:35:37;15.10;;;5.83;;
21697;SDS011;11010;49.548;11.926;2023-05-07T04:38:05;11.53;;;5.90;;
21697;SDS011;11010;49.548;11.926;2023-05-07T04:40:32;12.00;;;5.90;;
21697;SDS011;11010;49.548;11.926;2023-05-07T04:43:02;14.10;;;6.30;;
21697;SDS011;11010;49.548;11.926;2023-05-07T04:45:32;11.47;;;5.77;;
21697;SDS011;11010;49.548;11.926;2023-05-07T04:47:59;12.73;;;6.27;;
21697;SDS011;11010;49.548;11.926;2023-05-07T04:50:29;13.00;;;5.63;;
21697;SDS011;11010;49.548;11.926;2023-05-07T04:53:00;11.90;;;5.83;;
21697;SDS011;11010;49.548;11.926;2023-05-07T04:55:28;12.23;;;5.90;;
21697;SDS011;11010;49.548;11.926;2023-05-07T04:57:55;10.90;;;5.10;;
21697;SDS011;11010;49.548;11.926;2023-05-07T05:00:23;11.53;;;5.43;;
21697;SDS011;11010;49.548;11.926;2023-05-07T05:02:53;11.00;;;5.30;;
21697;SDS011;11010;49.548;11.926;2023-05-07T05:05:21;12.90;;;5.37;;
21697;SDS011;11010;49.548;11.926;2023-05-07T05:07:51;11.97;;;6.20;;
21697;SDS011;11010;49.548;11.926;2023-05-07T05:10:19;14.70;;;6.83;;
21697;SDS011;11010;49.548;11.926;2023-05-07T05:12:49;12.97;;;6.13;;
21697;SDS011;11010;49.548;11.926;2023-05-07T05:15:16;15.43;;;7.13;;
21697;SDS011;11010;49.548;11.926;2023-05-07T05:17:44;14.37;;;6.43;;
21697;SDS011;11010;49.548;11.926;2023-05-07T05:20:11;12.53;;;6.27;;
21697;SDS011;11010;49.548;11.926;2023-05-07T05:22:40;13.30;;;6.57;;
21697;SDS011;11010;49.548;11.926;2023-05-07T05:25:09;13.87;;;6.30;;
21697;SDS011;11010;49.548;11.926;2023-05-07T05:27:36;14.60;;;7.00;;
21697;SDS011;11010;49.548;11.926;2023-05-07T05:30:04;13.00;;;6.80;;
21697;SDS011;11010;49.548;11.926;2023-05-07T05:32:33;15.07;;;6.33;;
21697;SDS011;11010;49.548;11.926;2023-05-07T05:35:01;13.93;;;6.07;;
21697;SDS011;11010;49.548;11.926;2023-05-07T05:37:29;12.30;;;5.60;;
21697;SDS011;11010;49.548;11.926;2023-05-07T05:39:59;14.70;;;7.10;;
21697;SDS011;11010;49.548;11.926;2023-05-07T05:42:28;13.53;;;6.47;;
21697;SDS011;11010;49.548;11.926;2023-05-07T05:44:55;13.03;;;6.40;;
21697;SDS011;11010;49.548;11.926;2023-05-07T05:47:23;13.57;;;7.10;;
21697;SDS011;11010;49.548;11.926;2023-05-07T05:49:53;12.43;;;6.03;;
21697;SDS011;11010;49.548;11.926;2023-05-07T05:52:20;13.83;;;6.73;;
21697;SDS011;11010;49.548;11.926;2023-05-07T05:54:50;13.87;;;6.43;;
21697;SDS011;11010;49.548;11.926;2023-05-07T05:57:18;13.87;;;7.13;;
21697;SDS011;11010;49.548;11.926;2023-05-07T05:59:46;16.00;;;7.73;;
21697;SDS011;11010;49.548;11.926;2023-05-07T06:02:13;15.67;;;7.07;;
21697;SDS011;11010;49.548;11.926;2023-05-07T06:04:41;14.43;;;7.07;;
21697;SDS011;11010;49.548;11.926;2023-05-07T06:07:12;16.27;;;7.40;;
21697;SDS011;11010;49.548;11.926;2023-05-07T06:09:40;14.17;;;7.00;;
21697;SDS011;11010;49.548;11.926;2023-05-07T06:12:07;14.33;;;7.60;;
21697;SDS011;11010;49.548;11.926;2023-05-07T06:14:35;13.77;;;6.87;;
21697;SDS011;11010;49.548;11.926;2023-05-07T06:17:02;15.93;;;7.13;;
21697;SDS011;11010;49.548;11.926;2023-05-07T06:19:29;14.83;;;6.73;;
21697;SDS011;11010;49.548;11.926;2023-05-07T06:21:58;17.23;;;8.03;;
21697;SDS011;11010;49.548;11.926;2023-05-07T06:24:29;14.73;;;7.43;;
21697;SDS011;11010;49.548;11.926;2023-05-07T06:26:56;16.23;;;7.40;;
21697;SDS011;11010;49.548;11.926;2023-05-07T06:29:26;17.37;;;8.40;;
21697;SDS011;11010;49.548;11.926;2023-05-07T06:31:53;15.67;;;7.70;;
21697;SDS011;11010;49.548;11.926;2023-05-07T06:34:22;15.60;;;7.87;;
21697;SDS011;11010;49.548;11.926;2023-05-07T06:36:50;15.00;;;7.30;;
21697;SDS011;11010;49.548;11.926;2023-05-07T06:39:29;16.37;;;7.63;;
21697;SDS011;11010;49.548;11.926;2023-05-07T06:41:57;14.97;;;7.37;;
21697;SDS011;11010;49.548;11.926;2023-05-07T06:44:29;15.73;;;7.33;;
21697;SDS011;11010;49.548;11.926;2023-05-07T06:47:03;15.07;;;7.03;;
21697;SDS011;11010;49.548;11.926;2023-05-07T06:49:32;16.17;;;7.80;;
21697;SDS011;11010;49.548;11.926;2023-05-07T06:52:00;14.20;;;7.30;;
21697;SDS011;11010;49.548;11.926;2023-05-07T06:54:28;13.50;;;7.07;;
21697;SDS011;11010;49.548;11.926;2023-05-07T06:56:57;15.90;;;7.82;;
21697;SDS011;11010;49.548;11.926;2023-05-07T06:59:26;15.20;;;7.60;;
21697;SDS011;11010;49.548;11.926;2023-05-07T07:01:54;17.07;;;7.17;;
21697;SDS011;11010;49.548;11.926;2023-05-07T07:04:21;14.03;;;7.03;;
21697;SDS011;11010;49.548;11.926;2023-05-07T07:06:57;14.63;;;7.33;;
21697;SDS011;11010;49.548;11.926;2023-05-07T07:09:24;15.43;;;7.80;;
21697;SDS011;11010;49.548;11.926;2023-05-07T07:11:53;15.60;;;6.97;;
21697;SDS011;11010;49.548;11.926;2023-05-07T07:14:21;16.00;;;7.63;;
21697;SDS011;11010;49.548;11.926;2023-05-07T07:16:50;16.63;;;7.30;;
21697;SDS011;11010;49.548;11.926;2023-05-07T07:19:19;15.53;;;7.57;;
21697;SDS011;11010;49.548;11.926;2023-05-07T07:21:49;15.60;;;7.63;;
21697;SDS011;11010;49.548;11.926;2023-05-07T07:24:16;14.80;;;7.45;;
21697;SDS011;11010;49.548;11.926;2023-05-07T07:26:51;14.37;;;7.13;;
21697;SDS011;11010;49.548;11.926;2023-05-07T07:29:19;15.70;;;7.67;;
21697;SDS011;11010;49.548;11.926;2023-05-07T07:31:48;16.73;;;7.87;;
21697;SDS011;11010;49.548;11.926;2023-05-07T07:34:18;18.43;;;8.57;;
21697;SDS011;11010;49.548;11.926;2023-05-07T07:36:45;16.07;;;8.30;;
21697;SDS011;11010;49.548;11.926;2023-05-07T07:39:16;17.43;;;7.83;;
21697;SDS011;11010;49.548;11.926;2023-05-07T07:41:44;17.53;;;8.30;;
21697;SDS011;11010;49.548;11.926;2023-05-07T07:44:12;15.10;;;7.93;;
21697;SDS011;11010;49.548;11.926;2023-05-07T07:46:45;15.73;;;7.72;;
21697;SDS011;11010;49.548;11.926;2023-05-07T07:49:12;18.23;;;8.20;;
21697;SDS011;11010;49.548;11.926;2023-05-07T07:51:40;16.40;;;8.43;;
21697;SDS011;11010;49.548;11.926;2023-05-07T07:54:09;15.85;;;8.05;;
21697;SDS011;11010;49.548;11.926;2023-05-07T07:56:37;15.53;;;7.07;;
21697;SDS011;11010;49.548;11.926;2023-05-07T07:59:05;16.10;;;8.02;;
21697;SDS011;11010;49.548;11.926;2023-05-07T08:01:36;13.97;;;7.07;;
21697;SDS011;11010;49.548;11.926;2023-05-07T08:04:03;16.13;;;7.82;;
21697;SDS011;11010;49.548;11.926;2023-05-07T08:06:35;15.80;;;7.63;;
21697;SDS011;11010;49.548;11.926;2023-05-07T08:09:02;14.55;;;7.18;;
21697;SDS011;11010;49.548;11.926;2023-05-07T08:11:30;15.23;;;6.75;;
21697;SDS011;11010;49.548;11.926;2023-05-07T08:13:57;16.77;;;7.38;;
21697;SDS011;11010;49.548;11.926;2023-05-07T08:16:25;16.58;;;7.60;;
21697;SDS011;11010;49.548;11.926;2023-05-07T08:18:52;16.90;;;8.00;;
21697;SDS011;11010;49.548;11.926;2023-05-07T08:21:19;14.07;;;7.28;;
21697;SDS011;11010;49.548;11.926;2023-05-07T08:23:46;15.80;;;8.02;;
21697;SDS011;11010;49.548;11.926;2023-05-07T08:26:14;15.85;;;7.57;;
21697;SDS011;11010;49.548;11.926;2023-05-07T08:28:42;14.05;;;6.75;;
21697;SDS011;11010;49.548;11.926;2023-05-07T08:31:09;15.93;;;7.40;;
21697;SDS011;11010;49.548;11.926;2023-05-07T08:33:39;14.75;;;6.75;;
21697;SDS011;11010;49.548;11.926;2023-05-07T08:36:06;15.95;;;7.57;;
21697;SDS011;11010;49.548;11.926;2023-05-07T08:38:34;14.70;;;7.68;;
21697;SDS011;11010;49.548;11.926;2023-05-07T08:41:02;14.98;;;7.40;;
21697;SDS011;11010;49.548;11.926;2023-05-07T08:43:30;13.98;;;7.28;;
21697;SDS011;11010;49.548;11.926;2023-05-07T08:46:00;13.80;;;7.00;;
21697;SDS011;11010;49.548;11.926;2023-05-07T08:48:33;16.27;;;7.78;;
21697;SDS011;11010;49.548;11.926;2023-05-07T08:51:06;14.77;;;7.85;;
21697;SDS011;11010;49.548;11.926;2023-05-07T08:53:34;14.80;;;7.22;;
21697;SDS011;11010;49.548;11.926;2023-05-07T08:56:03;13.77;;;6.40;;
21697;SDS011;11010;49.548;11.926;2023-05-07T08:58:31;15.00;;;6.95;;
21697;SDS011;11010;49.548;11.926;2023-05-07T09:00:58;14.65;;;7.28;;
21697;SDS011;11010;49.548;11.926;2023-05-07T09:03:30;14.80;;;6.95;;
21697;SDS011;11010;49.548;11.926;2023-05-07T09:05:58;13.48;;;6.50;;
21697;SDS011;11010;49.548;11.926;2023-05-07T09:08:26;15.35;;;6.93;;
21697;SDS011;11010;49.548;11.926;2023-05-07T09:10:58;12.70;;;6.43;;
21697;SDS011;11010;49.548;11.926;2023-05-07T09:13:26;13.85;;;6.38;;
21697;SDS011;11010;49.548;11.926;2023-05-07T09:15:54;13.50;;;6.72;;
21697;SDS011;11010;49.548;11.926;2023-05-07T09:18:24;13.20;;;6.65;;
21697;SDS011;11010;49.548;11.926;2023-05-07T09:20:52;12.35;;;6.47;;
21697;SDS011;11010;49.548;11.926;2023-05-07T09:23:21;14.43;;;6.35;;
21697;SDS011;11010;49.548;11.926;2023-05-07T09:25:48;12.70;;;5.65;;
21697;SDS011;11010;49.548;11.926;2023-05-07T09:28:25;14.07;;;6.50;;
21697;SDS011;11010;49.548;11.926;2023-05-07T09:30:52;11.65;;;5.95;;
21697;SDS011;11010;49.548;11.926;2023-05-07T09:33:19;13.00;;;6.30;;
21697;SDS011;11010;49.548;11.926;2023-05-07T09:35:53;13.27;;;5.82;;
21697;SDS011;11010;49.548;11.926;2023-05-07T09:38:21;11.65;;;5.63;;
21697;SDS011;11010;49.548;11.926;2023-05-07T09:41:04;12.18;;;5.78;;
21697;SDS011;11010;49.548;11.926;2023-05-07T09:43:39;13.80;;;6.10;;
21697;SDS011;11010;49.548;11.926;2023-05-07T09:46:12;14.98;;;5.90;;
21697;SDS011;11010;49.548;11.926;2023-05-07T09:48:47;13.88;;;6.40;;
21697;SDS011;11010;49.548;11.926;2023-05-07T09:51:30;13.65;;;5.85;;
21697;SDS011;11010;49.548;11.926;2023-05-07T09:54:08;11.95;;;5.72;;
21697;SDS011;11010;49.548;11.926;2023-05-07T09:56:39;10.85;;;5.15;;
21697;SDS011;11010;49.548;11.926;2023-05-07T09:59:11;11.70;;;5.28;;
21697;SDS011;11010;49.548;11.926;2023-05-07T10:01:40;12.85;;;6.00;;
21697;SDS011;11010;49.548;11.926;2023-05-07T10:04:10;12.82;;;5.45;;
21697;SDS011;11010;49.548;11.926;2023-05-07T10:06:39;11.75;;;5.70;;
21697;SDS011;11010;49.548;11.926;2023-05-07T10:09:08;11.55;;;5.47;;
21697;SDS011;11010;49.548;11.926;2023-05-07T10:11:37;16.02;;;7.75;;
21697;SDS011;11010;49.548;11.926;2023-05-07T10:14:06;12.30;;;5.63;;
21697;SDS011;11010;49.548;11.926;2023-05-07T10:16:35;12.00;;;5.53;;
21697;SDS011;11010;49.548;11.926;2023-05-07T10:19:08;12.93;;;6.18;;
21697;SDS011;11010;49.548;11.926;2023-05-07T10:21:44;11.35;;;5.35;;
21697;SDS011;11010;49.548;11.926;2023-05-07T10:24:19;14.10;;;5.88;;
21697;SDS011;11010;49.548;11.926;2023-05-07T10:26:49;10.73;;;5.38;;
21697;SDS011;11010;49.548;11.926;2023-05-07T10:34:32;11.95;;;5.20;;
21697;SDS011;11010;49.548;11.926;2023-05-07T10:37:04;11.60;;;5.30;;
21697;SDS011;11010;49.548;11.926;2023-05-07T10:39:33;13.55;;;5.70;;
21697;SDS011;11010;49.548;11.926;2023-05-07T10:42:12;12.88;;;5.90;;
21697;SDS011;11010;49.548;11.926;2023-05-07T10:44:46;10.70;;;4.93;;
21697;SDS011;11010;49.548;11.926;2023-05-07T10:47:21;10.77;;;5.07;;
21697;SDS011;11010;49.548;11.926;2023-05-07T10:52:22;11.00;;;5.18;;
21697;SDS011;11010;49.548;11.926;2023-05-07T10:57:57;11.57;;;4.82;;
21697;SDS011;11010;49.548;11.926;2023-05-07T11:08:14;10.35;;;4.60;;
21697;SDS011;11010;49.548;11.926;2023-05-07T11:10:57;10.98;;;4.53;;
21697;SDS011;11010;49.548;11.926;2023-05-07T11:13:43;9.80;;;4.75;;
21697;SDS011;11010;49.548;11.926;2023-05-07T11:16:34;10.38;;;4.13;;
21697;SDS011;11010;49.548;11.926;2023-05-07T11:19:15;9.63;;;4.25;;
21697;SDS011;11010;49.548;11.926;2023-05-07T11:21:47;10.18;;;4.20;;
21697;SDS011;11010;49.548;11.926;2023-05-07T11:24:44;8.95;;;3.53;;
21697;SDS011;11010;49.548;11.926;2023-05-07T11:27:13;9.55;;;4.30;;
21697;SDS011;11010;49.548;11.926;2023-05-07T11:29:41;10.63;;;4.30;;
21697;SDS011;11010;49.548;11.926;2023-05-07T11:32:14;9.77;;;4.18;;
21697;SDS011;11010;49.548;11.926;2023-05-07T11:34:51;9.48;;;4.30;;
21697;SDS011;11010;49.548;11.926;2023-05-07T11:37:19;9.40;;;3.90;;
21697;SDS011;11010;49.548;11.926;2023-05-07T11:40:04;9.48;;;4.00;;
21697;SDS011;11010;49.548;11.926;2023-05-07T11:42:37;10.40;;;4.18;;
21697;SDS011;11010;49.548;11.926;2023-05-07T11:45:06;8.75;;;3.85;;
21697;SDS011;11010;49.548;11.926;2023-05-07T11:47:33;9.65;;;4.00;;
21697;SDS011;11010;49.548;11.926;2023-05-07T11:50:03;9.48;;;4.18;;
21697;SDS011;11010;49.548;11.926;2023-05-07T11:52:32;10.10;;;3.97;;
21697;SDS011;11010;49.548;11.926;2023-05-07T11:55:00;9.38;;;3.72;;
21697;SDS011;11010;49.548;11.926;2023-05-07T11:57:30;9.18;;;3.97;;
21697;SDS011;11010;49.548;11.926;2023-05-07T12:00:00;9.63;;;3.88;;
21697;SDS011;11010;49.548;11.926;2023-05-07T12:02:40;10.02;;;3.92;;
21697;SDS011;11010;49.548;11.926;2023-05-07T12:05:08;9.57;;;3.80;;
21697;SDS011;11010;49.548;11.926;2023-05-07T12:07:36;10.15;;;4.18;;
21697;SDS011;11010;49.548;11.926;2023-05-07T12:10:04;8.73;;;3.63;;
21697;SDS011;11010;49.548;11.926;2023-05-07T12:12:40;8.10;;;3.42;;
21697;SDS011;11010;49.548;11.926;2023-05-07T12:15:10;9.25;;;3.90;;
21697;SDS011;11010;49.548;11.926;2023-05-07T12:17:41;8.43;;;3.78;;
21697;SDS011;11010;49.548;11.926;2023-05-07T12:20:09;9.25;;;3.95;;
21697;SDS011;11010;49.548;11.926;2023-05-07T12:22:37;9.98;;;4.45;;
21697;SDS011;11010;49.548;11.926;2023-05-07T12:25:04;9.73;;;3.83;;
21697;SDS011;11010;49.548;11.926;2023-05-07T12:27:36;9.07;;;3.60;;
21697;SDS011;11010;49.548;11.926;2023-05-07T12:30:04;8.70;;;3.60;;
21697;SDS011;11010;49.548;11.926;2023-05-07T12:32:32;9.30;;;3.85;;
21697;SDS011;11010;49.548;11.926;2023-05-07T12:35:03;8.82;;;3.35;;
21697;SDS011;11010;49.548;11.926;2023-05-07T12:37:33;9.05;;;3.33;;
21697;SDS011;11010;49.548;11.926;2023-05-07T12:40:06;8.55;;;3.08;;
21697;SDS011;11010;49.548;11.926;2023-05-07T12:42:37;7.90;;;2.80;;
21697;SDS011;11010;49.548;11.926;2023-05-07T12:45:10;7.35;;;2.63;;
21697;SDS011;11010;49.548;11.926;2023-05-07T12:47:43;7.93;;;2.83;;
21697;SDS011;11010;49.548;11.926;2023-05-07T12:50:12;7.93;;;3.00;;
21697;SDS011;11010;49.548;11.926;2023-05-07T12:52:40;7.75;;;2.90;;
21697;SDS011;11010;49.548;11.926;2023-05-07T12:55:09;9.18;;;3.10;;
21697;SDS011;11010;49.548;11.926;2023-05-07T12:57:39;9.68;;;2.80;;
21697;SDS011;11010;49.548;11.926;2023-05-07T13:00:08;8.13;;;2.80;;
21697;SDS011;11010;49.548;11.926;2023-05-07T13:02:39;8.25;;;2.75;;
21697;SDS011;11010;49.548;11.926;2023-05-07T13:05:08;7.95;;;2.85;;
21697;SDS011;11010;49.548;11.926;2023-05-07T13:07:36;8.20;;;3.20;;
21697;SDS011;11010;49.548;11.926;2023-05-07T13:10:04;7.65;;;2.85;;
21697;SDS011;11010;49.548;11.926;2023-05-07T13:12:32;7.85;;;3.00;;
21697;SDS011;11010;49.548;11.926;2023-05-07T13:14:59;8.45;;;3.00;;
21697;SDS011;11010;49.548;11.926;2023-05-07T13:17:26;8.15;;;3.20;;
21697;SDS011;11010;49.548;11.926;2023-05-07T13:19:53;7.45;;;2.80;;
21697;SDS011;11010;49.548;11.926;2023-05-07T13:22:20;9.48;;;3.17;;
21697;SDS011;11010;49.548;11.926;2023-05-07T13:24:47;7.95;;;2.90;;
21697;SDS011;11010;49.548;11.926;2023-05-07T13:27:14;6.97;;;2.70;;
21697;SDS011;11010;49.548;11.926;2023-05-07T13:29:41;7.93;;;3.00;;
21697;SDS011;11010;49.548;11.926;2023-05-07T13:32:08;7.85;;;2.65;;
21697;SDS011;11010;49.548;11.926;2023-05-07T13:34:36;7.30;;;2.58;;
21697;SDS011;11010;49.548;11.926;2023-05-07T13:37:03;7.00;;;2.60;;
21697;SDS011;11010;49.548;11.926;2023-05-07T13:39:30;7.78;;;2.90;;
21697;SDS011;11010;49.548;11.926;2023-05-07T13:41:58;7.68;;;3.00;;
21697;SDS011;11010;49.548;11.926;2023-05-07T13:44:25;9.40;;;2.80;;
21697;SDS011;11010;49.548;11.926;2023-05-07T13:46:53;8.27;;;3.00;;
21697;SDS011;11010;49.548;11.926;2023-05-07T13:49:20;8.02;;;2.97;;
21697;SDS011;11010;49.548;11.926;2023-05-07T13:51:47;9.48;;;3.10;;
21697;SDS011;11010;49.548;11.926;2023-05-07T13:54:14;7.80;;;3.10;;
21697;SDS011;11010;49.548;11.926;2023-05-07T13:56:42;7.78;;;2.85;;
21697;SDS011;11010;49.548;11.926;2023-05-07T13:59:09;7.50;;;2.67;;
21697;SDS011;11010;49.548;11.926;2023-05-07T14:01:36;7.75;;;2.63;;
21697;SDS011;11010;49.548;11.926;2023-05-07T14:04:03;7.10;;;2.17;;
21697;SDS011;11010;49.548;11.926;2023-05-07T14:06:30;7.45;;;2.33;;
21697;SDS011;11010;49.548;11.926;2023-05-07T14:08:58;8.27;;;2.70;;
21697;SDS011;11010;49.548;11.926;2023-05-07T14:11:25;7.32;;;2.53;;
21697;SDS011;11010;49.548;11.926;2023-05-07T14:13:52;7.95;;;2.60;;
21697;SDS011;11010;49.548;11.926;2023-05-07T14:16:19;8.23;;;2.83;;
21697;SDS011;11010;49.548;11.926;2023-05-07T14:18:46;7.70;;;2.55;;
21697;SDS011;11010;49.548;11.926;2023-05-07T14:21:13;7.30;;;2.47;;
21697;SDS011;11010;49.548;11.926;2023-05-07T14:23:40;7.55;;;2.30;;
21697;SDS011;11010;49.548;11.926;2023-05-07T14:26:07;7.72;;;2.40;;
21697;SDS011;11010;49.548;11.926;2023-05-07T14:28:34;7.30;;;2.40;;
21697;SDS011;11010;49.548;11.926;2023-05-07T14:31:02;6.53;;;2.25;;
21697;SDS011;11010;49.548;11.926;2023-05-07T14:33:29;7.55;;;2.47;;
21697;SDS011;11010;49.548;11.926;2023-05-07T14:35:56;7.47;;;2.38;;
21697;SDS011;11010;49.548;11.926;2023-05-07T14:38:23;7.38;;;2.22;;
21697;SDS011;11010;49.548;11.926;2023-05-07T14:40:50;6.97;;;2.20;;
21697;SDS011;11010;49.548;11.926;2023-05-07T14:43:18;7.20;;;2.30;;
21697;SDS011;11010;49.548;11.926;2023-05-07T14:45:47;7.20;;;2.25;;
21697;SDS011;11010;49.548;11.926;2023-05-07T14:48:14;7.10;;;2.38;;
21697;SDS011;11010;49.548;11.926;2023-05-07T14:50:42;8.27;;;2.72;;
21697;SDS011;11010;49.548;11.926;2023-05-07T14:53:09;8.50;;;2.50;;
21697;SDS011;11010;49.548;11.926;2023-05-07T14:55:36;6.90;;;2.25;;